Time;durP1;ratioP1;P1;durP2;ratioP2;P2;SDS_P1;SDS_P2;PMS_P1;PMS_P2;Temp;Humidity;BMP_temperature;BMP_pressure;BME280_temperature;BME280_humidity;BME280_pressure;Samples;Min_cycle;Max_cycle;Signal;HPM_P1;HPM_P2
2023/10/05 00:00:27;;;;;;;7.37;3.10;;;;;;;-145.68;100.00;74801.22;10441291;28;20223;-67
2023/10/05 00:05:21;;;;;;;7.57;3.40;;;;;;;-145.68;100.00;74795.22;10439541;28;20217;-68
2023/10/05 00:10:22;;;;;;;7.13;3.23;;;;;;;-145.68;100.00;74795.22;10444422;28;20377;-68
2023/10/05 00:15:23;;;;;;;6.87;2.93;;;;;;;-145.68;100.00;74791.22;10447229;28;20697;-67
2023/10/05 00:20:31;;;;;;;5.97;3.27;;;;;;;-145.68;100.00;74791.22;10447220;28;20215;-68
2023/10/05 00:25:32;;;;;;;10.60;3.87;;;;;;;-145.68;100.00;74779.22;10446726;28;20586;-68
2023/10/05 00:30:33;;;;;;;9.77;3.77;;;;;;;-145.68;100.00;74771.22;10446722;28;20184;-68
2023/10/05 00:35:35;;;;;;;7.70;3.17;;;;;;;-145.68;100.00;74779.22;10447527;28;20220;-67
2023/10/05 00:40:37;;;;;;;6.93;3.10;;;;;;;-145.68;100.00;74779.22;10446370;28;20220;-68
2023/10/05 00:45:39;;;;;;;9.07;3.60;;;;;;;-145.68;100.00;74771.22;10447138;28;20203;-67
2023/10/05 00:50:40;;;;;;;7.90;3.43;;;;;;;-145.68;100.00;74763.22;10446855;28;20650;-68
2023/10/05 00:55:43;;;;;;;7.27;3.90;;;;;;;-145.68;100.00;74777.22;10428900;28;20208;-68
2023/10/05 01:00:53;;;;;;;8.90;3.70;;;;;;;-145.68;100.00;74783.22;10427515;28;20303;-68
2023/10/05 01:06:12;;;;;;;8.80;2.93;;;;;;;-145.68;100.00;74795.22;10444219;28;20696;-68
2023/10/05 01:11:14;;;;;;;8.80;3.70;;;;;;;-145.68;100.00;74803.22;10441398;28;20188;-68
2023/10/05 01:16:19;;;;;;;10.17;3.63;;;;;;;-145.68;100.00;74815.22;10445909;28;20288;-67
2023/10/05 01:21:20;;;;;;;9.70;3.67;;;;;;;-145.68;100.00;74823.22;10444387;28;20791;-67
2023/10/05 01:26:20;;;;;;;10.40;3.87;;;;;;;-145.68;100.00;74827.22;10446006;28;20373;-67
2023/10/05 01:31:21;;;;;;;12.63;3.83;;;;;;;-145.68;100.00;74829.22;10443559;28;20203;-67
2023/10/05 01:36:22;;;;;;;8.30;3.87;;;;;;;-145.68;100.00;74819.22;10442584;28;20273;-67
2023/10/05 01:41:23;;;;;;;8.57;3.37;;;;;;;-145.68;100.00;74817.22;10444023;28;20273;-67
2023/10/05 01:46:23;;;;;;;11.03;3.97;;;;;;;-145.68;100.00;74823.22;10444823;28;20223;-68
2023/10/05 01:51:24;;;;;;;9.50;4.40;;;;;;;-145.68;100.00;74827.22;10443900;28;20194;-67
2023/10/05 01:56:25;;;;;;;7.07;3.60;;;;;;;-145.68;100.00;74837.22;10442055;28;20216;-67
2023/10/05 02:01:28;;;;;;;9.00;4.03;;;;;;;-145.68;100.00;74843.22;10442190;28;20230;-67
2023/10/05 02:06:39;;;;;;;10.70;3.93;;;;;;;-145.68;100.00;74825.22;10443753;28;20576;-67
2023/10/05 02:11:41;;;;;;;9.73;3.90;;;;;;;-145.68;100.00;74835.22;10442811;28;20192;-67
2023/10/05 02:16:48;;;;;;;10.13;3.80;;;;;;;-145.68;100.00;74849.22;10442370;28;20269;-67
2023/10/05 02:21:53;;;;;;;12.77;3.80;;;;;;;-145.68;100.00;74855.22;10442054;28;20281;-67
2023/10/05 02:37:07;;;;;;;8.63;3.93;;;;;;;-145.68;100.00;74805.22;10440232;28;20212;-67
2023/10/05 02:42:12;;;;;;;12.00;4.60;;;;;;;-145.68;100.00;74791.22;10423930;28;20272;-67
2023/10/05 02:47:14;;;;;;;12.70;4.20;;;;;;;-145.68;100.00;74779.22;10442427;28;20236;-67
2023/10/05 02:52:16;;;;;;;12.57;4.93;;;;;;;-145.68;100.00;74795.22;10440091;28;20284;-67
2023/10/05 02:57:16;;;;;;;8.83;4.17;;;;;;;-145.68;100.00;74785.22;10439708;28;20749;-67
2023/10/05 03:02:18;;;;;;;12.10;4.27;;;;;;;-145.68;100.00;74769.22;10440997;28;20222;-68
2023/10/05 03:07:18;;;;;;;10.17;4.33;;;;;;;-145.68;100.00;74763.22;10441585;28;20209;-67
2023/10/05 03:12:20;;;;;;;12.53;4.27;;;;;;;-145.68;100.00;74751.22;10439349;28;20247;-67
2023/10/05 03:17:26;;;;;;;9.33;4.10;;;;;;;-145.68;100.00;74743.25;10439518;28;20257;-68
2023/10/05 03:22:26;;;;;;;13.90;4.40;;;;;;;-145.68;100.00;74761.22;10431906;28;20220;-67
2023/10/05 03:27:31;;;;;;;9.73;4.63;;;;;;;-145.68;100.00;74771.22;10443547;28;20296;-67
2023/10/05 03:32:35;;;;;;;13.87;4.43;;;;;;;-145.68;100.00;74759.22;10444923;28;20240;-67
2023/10/05 03:37:39;;;;;;;10.00;4.40;;;;;;;-145.68;100.00;74769.22;10445749;28;20204;-67
2023/10/05 03:42:39;;;;;;;11.67;4.07;;;;;;;-145.68;100.00;74759.22;10446409;28;20754;-68
2023/10/05 03:47:40;;;;;;;9.70;4.13;;;;;;;-145.68;100.00;74763.22;10452576;28;20211;-67
2023/10/05 03:52:44;;;;;;;10.70;5.43;;;;;;;-145.68;100.00;74731.25;10452804;28;20214;-67
2023/10/05 03:57:45;;;;;;;7.63;4.30;;;;;;;-145.68;100.00;74735.25;10451981;28;20216;-67
2023/10/05 04:02:46;;;;;;;13.63;4.10;;;;;;;-145.68;100.00;74725.25;10439256;28;20769;-67
2023/10/05 04:07:48;;;;;;;12.27;4.47;;;;;;;-145.68;100.00;74739.25;10448000;28;20713;-67
2023/10/05 04:12:51;;;;;;;11.70;3.77;;;;;;;-145.68;100.00;74749.22;10449738;28;20223;-67
2023/10/05 04:17:53;;;;;;;12.00;4.63;;;;;;;-145.68;100.00;74757.22;10452643;28;20728;-67
2023/10/05 04:22:57;;;;;;;11.97;4.23;;;;;;;-145.68;100.00;74725.25;10452560;28;20228;-67
2023/10/05 04:27:57;;;;;;;13.50;4.63;;;;;;;-145.68;100.00;74725.25;10439218;22;20252;-67
2023/10/05 04:32:58;;;;;;;11.83;4.57;;;;;;;-145.68;100.00;74715.25;10392169;28;20184;-69
2023/10/05 04:38:00;;;;;;;10.17;4.53;;;;;;;-145.68;100.00;74689.25;10408544;28;20216;-68
2023/10/05 04:43:04;;;;;;;13.97;5.17;;;;;;;-145.68;100.00;74657.25;10409963;28;20227;-67
2023/10/05 04:48:06;;;;;;;11.60;4.23;;;;;;;-145.68;99.55;74685.25;10410508;28;20220;-68
2023/10/05 04:53:11;;;;;;;12.87;5.10;;;;;;;-145.68;100.00;74677.25;10409993;28;20197;-68
2023/10/05 04:58:20;;;;;;;14.67;5.17;;;;;;;-145.68;100.00;74695.25;10409548;28;20374;-67
2023/10/05 05:08:24;;;;;;;14.40;4.77;;;;;;;-145.68;100.00;74673.25;10409135;28;20209;-68
2023/10/05 05:13:27;;;;;;;14.73;4.53;;;;;;;-145.68;100.00;74641.28;10409527;28;20189;-67
2023/10/05 05:18:28;;;;;;;14.17;5.20;;;;;;;-145.68;100.00;74647.28;10401169;28;20212;-66
2023/10/05 05:23:28;;;;;;;11.50;5.00;;;;;;;-145.68;100.00;74661.25;10398357;28;20643;-66
2023/10/05 05:28:30;;;;;;;12.37;5.33;;;;;;;-145.68;100.00;74633.28;10408768;28;20239;-67
2023/10/05 05:33:30;;;;;;;11.90;5.37;;;;;;;-145.68;100.00;74617.28;10408761;28;20197;-68
2023/10/05 05:38:31;;;;;;;14.60;5.20;;;;;;;-145.68;99.64;74591.28;10408118;28;20209;-68
2023/10/05 05:43:33;;;;;;;14.60;5.80;;;;;;;-145.68;97.92;74565.28;10408419;28;20212;-68
2023/10/05 05:48:33;;;;;;;15.20;5.33;;;;;;;-145.68;95.58;74543.31;10388468;28;20220;-68
2023/10/05 05:53:34;;;;;;;13.13;5.40;;;;;;;-145.68;93.33;74525.31;10401296;28;20254;-68
2023/10/05 05:58:34;;;;;;;12.57;6.00;;;;;;;-145.68;91.29;74507.31;10406503;28;20220;-69
2023/10/05 06:03:35;;;;;;;16.23;5.90;;;;;;;-145.68;89.89;74501.31;10407167;28;20718;-67
2023/10/05 06:08:35;;;;;;;16.93;6.13;;;;;;;-145.68;89.10;74497.31;10406911;28;20212;-68
2023/10/05 06:13:40;;;;;;;11.70;5.50;;;;;;;-145.68;88.83;74459.34;10406777;28;20284;-69
2023/10/05 06:18:40;;;;;;;15.27;6.20;;;;;;;-145.68;88.25;74459.34;10406627;28;20224;-69
2023/10/05 06:23:41;;;;;;;16.40;5.77;;;;;;;-145.68;86.63;74449.34;10406193;28;20282;-68
2023/10/05 06:28:42;;;;;;;13.67;5.93;;;;;;;-145.68;86.93;74439.34;10403542;28;20236;-69
2023/10/05 06:33:43;;;;;;;14.83;5.20;;;;;;;-145.68;88.38;74443.34;10405806;28;20276;-68
2023/10/05 06:38:44;;;;;;;16.47;5.83;;;;;;;-145.68;87.68;74431.34;10405138;28;20213;-68
2023/10/05 06:43:46;;;;;;;11.00;5.07;;;;;;;-145.68;87.54;74413.34;10402353;28;20208;-69
2023/10/05 06:48:50;;;;;;;12.97;4.80;;;;;;;-145.68;86.59;74399.34;10402131;28;20212;-67
2023/10/05 06:53:51;;;;;;;14.27;5.23;;;;;;;-145.68;86.42;74393.34;10405375;28;20216;-69
2023/10/05 06:58:52;;;;;;;16.43;5.53;;;;;;;-145.68;86.51;74385.34;10396258;28;20212;-68
2023/10/05 07:03:52;;;;;;;17.17;5.40;;;;;;;-145.68;84.90;74343.38;10391222;28;20703;-70
2023/10/05 07:08:53;;;;;;;12.50;4.27;;;;;;;-145.68;84.24;74317.38;10396107;28;20853;-69
2023/10/05 07:13:53;;;;;;;13.85;4.20;;;;;;;-145.68;83.05;74331.38;10402786;28;20192;-69
2023/10/05 07:18:54;;;;;;;12.57;4.97;;;;;;;-145.68;82.72;74319.38;10401304;28;20216;-70
2023/10/05 07:23:54;;;;;;;10.98;4.40;;;;;;;-145.68;80.94;74335.38;10397822;28;20630;-69
2023/10/05 07:28:55;;;;;;;11.10;4.50;;;;;;;-145.68;80.85;74325.38;10397803;28;20785;-68
2023/10/05 07:33:55;;;;;;;11.87;4.43;;;;;;;-145.68;81.35;74323.38;10403968;28;20674;-70
2023/10/05 07:38:57;;;;;;;10.90;4.30;;;;;;;-145.68;80.82;74303.38;10403610;28;20706;-69
2023/10/05 07:43:57;;;;;;;7.85;3.50;;;;;;;-145.68;80.23;74303.38;10403711;28;20228;-69
2023/10/05 07:48:58;;;;;;;10.10;4.53;;;;;;;-145.68;79.01;74295.41;10403309;28;20216;-69
2023/10/05 07:53:59;;;;;;;14.25;3.90;;;;;;;-145.68;78.74;74291.41;10404199;28;20241;-70
2023/10/05 07:58:59;;;;;;;9.98;3.22;;;;;;;-145.68;77.14;74265.41;10399047;28;20229;-69
2023/10/05 08:03:59;;;;;;;10.48;3.75;;;;;;;-145.68;74.95;74287.41;10403770;28;20238;-69
2023/10/05 08:09:00;;;;;;;15.27;3.65;;;;;;;-145.68;74.39;74243.41;10398061;28;20224;-69
2023/10/05 08:14:00;;;;;;;14.80;3.97;;;;;;;-145.68;72.55;74235.41;10398879;28;20280;-69
2023/10/05 08:19:00;;;;;;;13.25;3.92;;;;;;;-145.68;72.23;74227.41;10387737;28;20244;-68
2023/10/05 08:24:02;;;;;;;10.27;4.03;;;;;;;-145.68;71.44;74175.44;10381358;28;20205;-70
2023/10/05 08:29:06;;;;;;;12.57;4.45;;;;;;;-145.68;70.80;74197.44;10384523;28;20319;-70
2023/10/05 08:34:09;;;;;;;9.45;3.42;;;;;;;-145.68;70.89;74207.44;10404707;28;20663;-70
2023/10/05 08:39:09;;;;;;;8.90;3.25;;;;;;;-145.68;70.74;74181.44;10410154;28;20245;-70
2023/10/05 08:44:11;;;;;;;9.60;3.63;;;;;;;-145.68;70.38;74187.44;10410421;28;20237;-69
2023/10/05 08:49:12;;;;;;;7.90;3.53;;;;;;;-145.68;69.58;74167.44;10409645;28;20208;-68
2023/10/05 08:54:13;;;;;;;6.80;2.80;;;;;;;-145.68;66.87;74125.47;10409259;28;20216;-70
2023/10/05 08:59:14;;;;;;;10.15;3.55;;;;;;;-145.68;65.91;74121.47;10391893;28;20311;-68
2023/10/05 09:09:19;;;;;;;10.32;3.35;;;;;;;-145.68;65.18;74065.50;10409249;28;20208;-69
2023/10/05 09:14:27;;;;;;;12.20;4.72;;;;;;;-145.68;66.39;74201.44;10391965;28;20189;-69
2023/10/05 09:19:29;;;;;;;10.20;3.30;;;;;;;-145.68;66.14;74143.47;10406217;28;20216;-69
2023/10/05 09:24:30;;;;;;;6.00;3.05;;;;;;;-145.68;66.55;74185.44;10391471;28;20193;-69
2023/10/05 09:29:32;;;;;;;8.77;2.60;;;;;;;-145.68;65.94;74135.47;10391891;28;20224;-70
2023/10/05 09:34:49;;;;;;;11.30;3.70;;;;;;;-145.68;64.50;74075.50;10405987;28;20270;-69
2023/10/05 09:39:53;;;;;;;12.23;3.25;;;;;;;-145.68;63.19;74079.50;10407360;28;20303;-69
2023/10/05 09:44:59;;;;;;;4.82;2.78;;;;;;;-145.68;62.77;74073.50;10390906;28;20678;-68
2023/10/05 09:50:00;;;;;;;10.63;3.38;;;;;;;-145.68;62.87;74111.47;10400918;28;20220;-69
2023/10/05 09:55:03;;;;;;;5.80;3.03;;;;;;;-145.68;63.93;74141.47;10408015;28;20700;-68
2023/10/05 10:00:10;;;;;;;8.77;3.42;;;;;;;-145.68;63.30;74115.47;10407221;28;20227;-67
2023/10/05 10:05:30;;;;;;;8.52;3.10;;;;;;;-145.68;61.72;74029.50;10405309;28;20200;-68
2023/10/05 10:10:30;;;;;;;8.10;3.28;;;;;;;-145.68;61.86;74015.50;10391809;28;20216;-69
2023/10/05 10:15:33;;;;;;;9.00;3.33;;;;;;;-145.68;61.15;73951.53;10407059;28;20280;-69
2023/10/05 10:20:36;;;;;;;12.75;2.90;;;;;;;-145.68;60.86;73955.53;10406687;28;20303;-68
2023/10/05 10:25:40;;;;;;;5.22;2.90;;;;;;;-145.68;60.67;73923.56;10406110;28;20211;-68
2023/10/05 10:30:49;;;;;;;6.75;2.88;;;;;;;-145.68;57.81;73849.59;10459487;22;20247;-69
2023/10/05 10:35:49;;;;;;;8.50;2.63;;;;;;;-145.68;55.99;73813.63;10446364;28;20208;-69
2023/10/05 10:41:09;;;;;;;7.60;2.50;;;;;;;-145.68;56.13;73867.59;10444489;28;20228;-70
2023/10/05 10:46:20;;;;;;;7.65;2.35;;;;;;;-145.68;55.67;73871.59;10444979;28;21534;-71
2023/10/05 10:51:21;;;;;;;7.00;2.40;;;;;;;-145.68;55.69;73843.59;10444473;28;20690;-69
2023/10/05 10:56:27;;;;;;;7.88;2.30;;;;;;;-145.68;54.94;73863.59;10440232;28;20610;-67
2023/10/05 11:01:28;;;;;;;8.45;3.17;;;;;;;-145.68;56.57;73961.53;10440816;28;20294;-68
2023/10/05 11:06:29;;;;;;;8.15;2.65;;;;;;;-145.68;57.99;73919.56;10444149;28;20208;-67
2023/10/05 11:11:29;;;;;;;6.35;2.53;;;;;;;-145.68;55.16;73979.53;10440420;28;20196;-68
2023/10/05 11:16:45;;;;;;;4.75;2.30;;;;;;;-145.68;54.51;73911.56;10441641;28;20212;-68
2023/10/05 11:21:46;;;;;;;4.60;1.98;;;;;;;-145.68;54.61;73927.56;10423192;28;20238;-68
2023/10/05 11:32:09;;;;;;;5.57;2.25;;;;;;;-145.68;55.79;73973.53;10426529;28;20187;-67
2023/10/05 11:37:17;;;;;;;7.32;1.83;;;;;;;-145.68;55.26;73915.56;10444240;28;20595;-68
2023/10/05 11:42:24;;;;;;;4.70;2.05;;;;;;;-145.68;54.27;73941.56;10440610;28;20686;-68
2023/10/05 11:47:32;;;;;;;5.13;1.92;;;;;;;-145.68;54.27;73909.56;10445108;28;20575;-68
2023/10/05 11:52:33;;;;;;;8.73;2.13;;;;;;;-145.68;54.18;73911.56;10441059;28;20195;-68
2023/10/05 11:57:33;;;;;;;6.45;2.70;;;;;;;-145.68;54.61;73877.59;10445057;28;20211;-68
2023/10/05 12:02:34;;;;;;;7.10;2.58;;;;;;;-145.68;53.53;73867.59;10445180;28;20648;-67
2023/10/05 12:07:34;;;;;;;5.88;2.15;;;;;;;-145.68;53.91;73851.59;10453213;28;20215;-68
2023/10/05 12:12:35;;;;;;;6.05;2.15;;;;;;;-145.68;52.17;73755.66;10448811;28;20786;-68
2023/10/05 12:17:37;;;;;;;7.90;2.75;;;;;;;-145.68;52.18;73813.63;10452538;28;20294;-69
2023/10/05 12:22:37;;;;;;;6.55;2.10;;;;;;;-145.68;51.81;73805.63;10452232;28;20701;-68
2023/10/05 12:27:38;;;;;;;4.50;2.03;;;;;;;-145.68;50.56;73715.66;10452252;28;20326;-68
2023/10/05 12:32:39;;;;;;;8.30;2.40;;;;;;;-145.68;48.90;73653.69;10451996;28;20241;-69
2023/10/05 12:37:41;;;;;;;7.65;2.13;;;;;;;-145.68;49.14;73629.72;10451605;28;20234;-67
2023/10/05 12:42:41;;;;;;;3.83;2.20;;;;;;;-145.68;47.22;73555.75;10451867;28;20223;-69
2023/10/05 12:47:42;;;;;;;5.25;2.10;;;;;;;-145.68;46.39;73419.84;10440056;28;20234;-68
2023/10/05 12:52:42;;;;;;;6.97;2.08;;;;;;;-145.68;47.79;73581.75;10451453;28;20188;-69
2023/10/05 12:57:44;;;;;;;4.10;2.00;;;;;;;-145.68;52.22;73797.63;10448795;28;20220;-69
2023/10/05 13:02:45;;;;;;;7.10;2.40;;;;;;;-145.68;48.20;73603.72;10450556;28;20706;-67
2023/10/05 13:07:46;;;;;;;11.23;2.58;;;;;;;-145.68;48.39;73697.69;10447543;28;20216;-69
2023/10/05 13:12:50;;;;;;;6.35;2.10;;;;;;;-145.68;49.98;73787.63;10450555;28;20196;-66
2023/10/05 13:17:56;;;;;;;6.13;2.25;;;;;;;-145.68;49.86;73683.69;10444691;28;20685;-68
2023/10/05 13:22:57;;;;;;;5.45;2.45;;;;;;;-145.68;49.37;73679.69;10442027;28;20224;-68
2023/10/05 13:27:58;;;;;;;5.65;2.08;;;;;;;-145.68;50.48;73721.66;10449075;28;20378;-66
2023/10/05 13:32:58;;;;;;;7.63;2.47;;;;;;;-145.68;48.79;73671.69;10449297;28;20199;-69
2023/10/05 13:37:58;;;;;;;9.63;2.20;;;;;;;-145.68;50.80;73799.63;10449524;28;20219;-69
2023/10/05 13:42:59;;;;;;;12.15;6.22;;;;;;;-145.68;51.15;73773.63;10450275;28;20215;-69
2023/10/05 13:48:00;;;;;;;3.40;2.28;;;;;;;-145.68;51.86;73821.63;10449212;28;20694;-68
2023/10/05 13:53:04;;;;;;;4.35;2.00;;;;;;;-145.68;51.66;73761.66;10444762;28;20187;-66
2023/10/05 13:58:05;;;;;;;6.82;2.25;;;;;;;-145.68;50.84;73813.63;10450787;28;20307;-69
2023/10/05 14:03:05;;;;;;;6.63;2.33;;;;;;;-145.68;50.09;73637.72;10448694;28;20226;-69
2023/10/05 14:08:10;;;;;;;5.10;1.98;;;;;;;-145.68;48.27;73633.72;10448629;28;20223;-69
2023/10/05 14:13:11;;;;;;;7.70;2.30;;;;;;;-145.68;49.88;73783.63;10448597;28;20231;-69
2023/10/05 14:18:12;;;;;;;4.50;2.17;;;;;;;-145.68;52.76;73889.56;10448269;28;20295;-68
2023/10/05 14:23:12;;;;;;;7.07;2.10;;;;;;;-145.68;52.27;73861.59;10443303;28;20231;-69
2023/10/05 14:28:14;;;;;;;7.00;2.60;;;;;;;-145.68;52.16;73835.59;10446365;28;20724;-68
2023/10/05 14:33:17;;;;;;;4.88;2.60;;;;;;;-145.68;53.27;73911.56;10447646;28;20288;-67
2023/10/05 14:38:19;;;;;;;6.38;2.20;;;;;;;-145.68;52.72;73927.56;10447353;28;20215;-66
2023/10/05 14:43:34;;;;;;;7.50;3.00;;;;;;;-145.68;52.39;73895.56;10447150;28;20243;-68
2023/10/05 14:48:36;;;;;;;6.60;2.60;;;;;;;-145.68;52.87;73955.53;10446959;28;20211;-67
2023/10/05 14:53:38;;;;;;;9.98;2.75;;;;;;;-145.68;53.64;73965.53;10442568;28;20279;-67
2023/10/05 14:58:39;;;;;;;9.50;3.08;;;;;;;-145.68;54.07;73959.53;10445977;28;20226;-67
2023/10/05 15:03:39;;;;;;;9.73;3.33;;;;;;;-145.68;54.54;73963.53;10446100;28;20915;-68
2023/10/05 15:08:40;;;;;;;11.98;2.88;;;;;;;-145.68;52.24;73809.63;10429786;28;20224;-68
2023/10/05 15:13:40;;;;;;;14.57;7.93;;;;;;;-145.68;52.92;73893.56;10434623;28;20200;-67
2023/10/05 15:18:41;;;;;;;16.80;7.03;;;;;;;-145.68;53.79;73925.56;10427799;28;20219;-68
2023/10/05 15:23:41;;;;;;;11.20;4.22;;;;;;;-145.68;54.27;73935.56;10444013;28;20235;-68
2023/10/05 15:28:41;;;;;;;11.23;2.85;;;;;;;-145.68;54.15;73931.56;10441703;28;20734;-68
2023/10/05 15:33:42;;;;;;;5.55;2.47;;;;;;;-145.68;54.93;73983.53;10445425;28;20206;-68
2023/10/05 15:38:42;;;;;;;9.95;2.65;;;;;;;-145.68;57.26;74099.47;10448093;28;20214;-66
2023/10/05 15:43:43;;;;;;;7.63;3.20;;;;;;;-145.68;58.02;74103.47;10453656;28;20709;-67
2023/10/05 15:48:43;;;;;;;11.27;3.22;;;;;;;-145.68;59.69;74159.44;10454136;28;20764;-67
2023/10/05 15:53:56;;;;;;;10.52;3.15;;;;;;;-145.68;60.44;74165.44;10453759;28;20191;-67
2023/10/05 15:58:56;;;;;;;9.00;3.25;;;;;;;-145.68;60.55;74155.44;10443497;28;20301;-67
2023/10/05 16:04:02;;;;;;;13.80;2.90;;;;;;;-145.68;61.18;74163.44;10453593;28;20775;-67
2023/10/05 16:09:04;;;;;;;9.45;3.97;;;;;;;-145.68;62.05;74189.44;10440784;28;20254;-65
2023/10/05 16:14:08;;;;;;;6.60;3.40;;;;;;;-145.68;62.90;74239.41;10430754;28;20192;-67
2023/10/05 16:19:08;;;;;;;9.63;4.78;;;;;;;-145.68;64.33;74239.41;10444386;28;20221;-66
2023/10/05 16:24:09;;;;;;;9.80;5.07;;;;;;;-145.68;65.54;74277.41;10450527;28;20232;-66
2023/10/05 16:29:09;;;;;;;9.70;3.55;;;;;;;-145.68;65.98;74299.38;10447433;28;20240;-67
2023/10/05 16:34:13;;;;;;;6.35;3.08;;;;;;;-145.68;66.59;74295.41;10450106;28;21118;-67
2023/10/05 16:39:18;;;;;;;6.80;2.88;;;;;;;-145.68;67.24;74297.41;10449823;28;20235;-68
2023/10/05 16:44:18;;;;;;;6.80;2.42;;;;;;;-145.68;67.87;74309.38;10449821;28;20580;-68
2023/10/05 16:49:18;;;;;;;6.22;3.10;;;;;;;-145.68;68.32;74331.38;10447842;28;20280;-68
2023/10/05 16:54:21;;;;;;;9.95;3.35;;;;;;;-145.68;69.52;74343.38;10448534;28;20195;-68
2023/10/05 16:59:21;;;;;;;11.40;2.95;;;;;;;-145.68;70.29;74359.38;10447696;28;20216;-67
2023/10/05 17:04:22;;;;;;;12.23;3.20;;;;;;;-145.68;70.84;74351.38;10445959;28;20216;-68
2023/10/05 17:09:26;;;;;;;10.15;3.13;;;;;;;-145.68;71.27;74351.38;10430645;28;20216;-67
2023/10/05 17:14:28;;;;;;;11.73;2.83;;;;;;;-145.68;70.95;74347.38;10420526;28;20927;-68
2023/10/05 17:19:28;;;;;;;5.75;2.72;;;;;;;-145.68;70.42;74333.38;10442873;28;20705;-68
2023/10/05 17:24:28;;;;;;;9.43;2.85;;;;;;;-145.68;70.90;74357.38;10447717;28;20208;-67
2023/10/05 17:29:30;;;;;;;8.93;3.20;;;;;;;-145.68;70.29;74345.38;10447205;28;20297;-68
2023/10/05 17:34:31;;;;;;;9.20;3.22;;;;;;;-145.68;70.29;74345.38;10445245;28;20188;-68
2023/10/05 17:39:31;;;;;;;9.52;3.22;;;;;;;-145.68;70.24;74361.38;10447095;28;20211;-68
2023/10/05 17:44:31;;;;;;;7.82;2.97;;;;;;;-145.68;70.39;74361.38;10447031;28;20219;-68
2023/10/05 17:49:32;;;;;;;11.82;3.10;;;;;;;-145.68;69.89;74345.38;10447257;28;20230;-68
2023/10/05 17:54:34;;;;;;;6.43;2.97;;;;;;;-145.68;70.23;74347.38;10442970;28;20188;-68
2023/10/05 17:59:34;;;;;;;8.18;3.45;;;;;;;-145.68;69.57;74343.38;10448583;28;20216;-68
2023/10/05 18:04:34;;;;;;;7.60;3.40;;;;;;;-145.68;69.06;74335.38;10449396;28;20679;-68
2023/10/05 18:09:35;;;;;;;10.80;3.03;;;;;;;-145.68;68.42;74343.38;10449908;28;20631;-68
2023/10/05 18:14:35;;;;;;;5.82;2.65;;;;;;;-145.68;68.35;74337.38;10449727;28;20188;-68
2023/10/05 18:19:36;;;;;;;5.10;2.63;;;;;;;-145.68;67.77;74325.38;10449313;28;20226;-68
2023/10/05 18:24:36;;;;;;;7.25;3.40;;;;;;;-145.68;68.02;74351.38;10449206;28;20218;-67
2023/10/05 18:29:37;;;;;;;9.75;3.75;;;;;;;-145.68;68.39;74339.38;10448620;28;20318;-68
2023/10/05 18:34:37;;;;;;;6.47;2.88;;;;;;;-145.68;68.59;74343.38;10448887;28;20188;-68
2023/10/05 18:39:38;;;;;;;6.35;2.70;;;;;;;-145.68;68.39;74339.38;10448345;28;20294;-68
2023/10/05 18:44:40;;;;;;;8.63;3.15;;;;;;;-145.68;68.57;74347.38;10448388;28;20228;-67
2023/10/05 18:49:40;;;;;;;7.45;2.53;;;;;;;-145.68;68.06;74333.38;10447886;28;20311;-68
2023/10/05 18:54:42;;;;;;;7.47;3.00;;;;;;;-145.68;67.94;74347.38;10447937;28;20631;-68
2023/10/05 18:59:43;;;;;;;6.70;3.13;;;;;;;-145.68;67.96;74351.38;10447708;28;20728;-68
2023/10/05 19:04:43;;;;;;;5.32;2.83;;;;;;;-145.68;68.29;74367.38;10447527;28;20198;-67
2023/10/05 19:09:43;;;;;;;10.73;3.65;;;;;;;-145.68;68.25;74365.38;10447635;28;20286;-68
2023/10/05 19:14:46;;;;;;;5.00;3.05;;;;;;;-145.68;68.06;74367.38;10446609;28;20211;-68
2023/10/05 19:19:46;;;;;;;9.95;2.88;;;;;;;-145.68;68.42;74371.38;10447154;28;20223;-68
2023/10/05 19:24:46;;;;;;;5.88;2.78;;;;;;;-145.68;68.29;74371.38;10447115;28;20195;-68
2023/10/05 19:29:47;;;;;;;6.88;3.05;;;;;;;-145.68;68.32;74365.38;10446849;28;20228;-68
2023/10/05 19:34:47;;;;;;;6.72;2.72;;;;;;;-145.68;68.60;74371.38;10447005;28;20192;-67
2023/10/05 19:39:47;;;;;;;5.63;2.65;;;;;;;-145.68;68.15;74365.38;10429151;28;20358;-68
2023/10/05 19:44:48;;;;;;;8.73;3.63;;;;;;;-145.68;68.59;74381.34;10446730;28;20192;-67
2023/10/05 19:49:50;;;;;;;10.63;3.20;;;;;;;-145.68;69.40;74391.34;10446460;28;20223;-67
2023/10/05 19:54:50;;;;;;;10.07;3.33;;;;;;;-145.68;69.42;74399.34;10446641;28;20192;-69
2023/10/05 19:59:51;;;;;;;9.27;2.97;;;;;;;-145.68;69.63;74391.34;10445341;28;20216;-69
2023/10/05 20:04:51;;;;;;;9.55;2.88;;;;;;;-145.68;69.33;74387.34;10446022;28;20620;-69
2023/10/05 20:09:52;;;;;;;5.18;2.75;;;;;;;-145.68;69.18;74397.34;10445523;28;20302;-69
2023/10/05 20:14:52;;;;;;;11.32;2.67;;;;;;;-145.68;69.37;74401.34;10445682;28;20203;-69
2023/10/05 20:19:53;;;;;;;7.32;3.35;;;;;;;-145.68;69.53;74419.34;10440251;28;20219;-69
2023/10/05 20:24:54;;;;;;;8.40;3.22;;;;;;;-145.68;69.66;74411.34;10448045;28;20199;-69
2023/10/05 20:29:56;;;;;;;7.82;3.22;;;;;;;-145.68;69.49;74423.34;10453437;28;20240;-69
2023/10/05 20:34:56;;;;;;;7.65;2.78;;;;;;;-145.68;70.52;74449.34;10449965;28;20203;-69
2023/10/05 20:39:58;;;;;;;5.47;3.00;;;;;;;-145.68;70.71;74449.34;10452835;28;20957;-69
2023/10/05 20:44:59;;;;;;;9.73;3.40;;;;;;;-145.68;71.40;74445.34;10453118;28;20257;-69
2023/10/05 20:50:00;;;;;;;12.77;3.83;;;;;;;-145.68;72.12;74439.34;10452593;28;20214;-69
2023/10/05 20:55:00;;;;;;;6.68;2.72;;;;;;;-145.68;72.80;74415.34;10452773;28;20195;-68
2023/10/05 21:00:01;;;;;;;8.52;3.28;;;;;;;-145.68;72.83;74427.34;10451178;28;20223;-69
2023/10/05 21:05:01;;;;;;;9.57;3.75;;;;;;;-145.68;73.31;74443.34;10451473;28;20192;-69
2023/10/05 21:10:02;;;;;;;7.88;3.13;;;;;;;-145.68;73.70;74441.34;10451792;28;20345;-69
2023/10/05 21:15:03;;;;;;;8.10;3.63;;;;;;;-145.68;74.48;74453.34;10452169;28;20190;-69
2023/10/05 21:20:04;;;;;;;6.40;3.38;;;;;;;-145.68;74.82;74443.34;10452176;28;20211;-69
2023/10/05 21:25:06;;;;;;;10.40;3.60;;;;;;;-145.68;75.45;74453.34;10452016;28;20191;-69
2023/10/05 21:30:07;;;;;;;9.75;3.75;;;;;;;-145.68;75.71;74449.34;10451722;28;20704;-69
2023/10/05 21:35:08;;;;;;;7.22;3.30;;;;;;;-145.68;75.86;74451.34;10451524;28;20227;-69
2023/10/05 21:40:09;;;;;;;8.90;3.58;;;;;;;-145.68;77.20;74475.31;10450995;28;20227;-69
2023/10/05 21:45:13;;;;;;;9.00;3.78;;;;;;;-145.68;78.13;74471.31;10451551;28;20203;-69
2023/10/05 21:50:14;;;;;;;11.88;3.60;;;;;;;-145.68;79.46;74479.31;10451003;28;20213;-69
2023/10/05 21:55:14;;;;;;;8.45;3.40;;;;;;;-145.68;80.04;74467.31;10451531;28;20201;-68
2023/10/05 22:00:25;;;;;;;10.27;4.00;;;;;;;-145.68;79.80;74459.34;10450628;28;20221;-68
2023/10/05 22:05:26;;;;;;;13.57;3.92;;;;;;;-145.68;80.09;74455.34;10450419;28;20216;-68
2023/10/05 22:10:26;;;;;;;10.27;3.75;;;;;;;-145.68;81.37;74471.31;10450398;28;20216;-69
2023/10/05 22:15:27;;;;;;;6.55;3.50;;;;;;;-145.68;82.45;74471.31;10450264;28;20253;-69
2023/10/05 22:20:28;;;;;;;9.20;4.28;;;;;;;-145.68;82.61;74471.31;10449812;28;20307;-69
2023/10/05 22:25:29;;;;;;;8.90;4.13;;;;;;;-145.68;82.98;74459.34;10449974;28;20199;-68
2023/10/05 22:30:30;;;;;;;10.23;3.88;;;;;;;-145.68;82.88;74467.31;10449127;28;20231;-69
2023/10/05 22:35:33;;;;;;;15.63;4.25;;;;;;;-145.68;82.28;74471.31;10449467;28;20192;-69
2023/10/05 22:40:35;;;;;;;10.27;4.10;;;;;;;-145.68;82.11;74471.31;10448787;28;20223;-69
2023/10/05 22:45:35;;;;;;;10.45;3.55;;;;;;;-145.68;81.67;74461.34;10449115;28;20196;-69
2023/10/05 22:50:37;;;;;;;9.05;4.00;;;;;;;-145.68;81.52;74481.31;10447948;28;20584;-69
2023/10/05 22:55:39;;;;;;;7.60;3.60;;;;;;;-145.68;81.88;74475.31;10448158;28;20190;-69
2023/10/05 23:00:40;;;;;;;8.07;3.03;;;;;;;-145.68;82.42;74479.31;10448304;28;20357;-68
2023/10/05 23:05:41;;;;;;;8.40;3.70;;;;;;;-145.68;82.92;74477.31;10448038;28;20265;-69